sensor_id;sensor_type;location;lat;lon;timestamp;temperature;humidity
74540;SHT31;66042;51.090;-115.340;2023-05-03T00:02:06;47.89;9.92
74540;SHT31;66042;51.090;-115.340;2023-05-03T00:04:35;47.55;10.02
74540;SHT31;66042;51.090;-115.340;2023-05-03T00:07:02;47.58;10.13
74540;SHT31;66042;51.090;-115.340;2023-05-03T00:09:29;47.27;9.89
74540;SHT31;66042;51.090;-115.340;2023-05-03T00:11:59;46.51;10.20
74540;SHT31;66042;51.090;-115.340;2023-05-03T00:14:26;46.27;10.13
74540;SHT31;66042;51.090;-115.340;2023-05-03T00:16:54;45.82;10.43
74540;SHT31;66042;51.090;-115.340;2023-05-03T00:19:21;44.78;10.67
74540;SHT31;66042;51.090;-115.340;2023-05-03T00:21:51;43.31;11.23
74540;SHT31;66042;51.090;-115.340;2023-05-03T00:24:18;42.27;11.57
74540;SHT31;66042;51.090;-115.340;2023-05-03T00:26:45;41.51;12.14
74540;SHT31;66042;51.090;-115.340;2023-05-03T00:29:12;41.04;12.35
74540;SHT31;66042;51.090;-115.340;2023-05-03T00:31:39;40.41;12.47
74540;SHT31;66042;51.090;-115.340;2023-05-03T00:34:08;39.69;12.62
74540;SHT31;66042;51.090;-115.340;2023-05-03T00:36:35;38.91;13.01
74540;SHT31;66042;51.090;-115.340;2023-05-03T00:39:02;38.31;13.52
74540;SHT31;66042;51.090;-115.340;2023-05-03T00:41:29;37.81;13.89
74540;SHT31;66042;51.090;-115.340;2023-05-03T00:43:56;37.50;14.06
74540;SHT31;66042;51.090;-115.340;2023-05-03T00:46:23;37.29;14.17
74540;SHT31;66042;51.090;-115.340;2023-05-03T00:48:51;36.88;14.26
74540;SHT31;66042;51.090;-115.340;2023-05-03T00:51:18;36.29;14.75
74540;SHT31;66042;51.090;-115.340;2023-05-03T00:53:47;35.87;15.01
74540;SHT31;66042;51.090;-115.340;2023-05-03T00:56:15;35.53;15.16
74540;SHT31;66042;51.090;-115.340;2023-05-03T00:58:49;35.23;15.34
74540;SHT31;66042;51.090;-115.340;2023-05-03T01:01:17;34.90;15.55
74540;SHT31;66042;51.090;-115.340;2023-05-03T01:03:44;34.53;15.68
74540;SHT31;66042;51.090;-115.340;2023-05-03T01:17:45;32.00;17.47
74540;SHT31;66042;51.090;-115.340;2023-05-03T01:20:21;31.57;17.73
74540;SHT31;66042;51.090;-115.340;2023-05-03T01:25:30;30.91;18.32
74540;SHT31;66042;51.090;-115.340;2023-05-03T01:27:57;30.61;18.61
74540;SHT31;66042;51.090;-115.340;2023-05-03T01:30:25;30.36;18.78
74540;SHT31;66042;51.090;-115.340;2023-05-03T01:33:04;30.12;19.11
74540;SHT31;66042;51.090;-115.340;2023-05-03T01:36:11;29.85;19.33
74540;SHT31;66042;51.090;-115.340;2023-05-03T01:38:45;29.62;19.50
74540;SHT31;66042;51.090;-115.340;2023-05-03T01:41:14;29.38;19.67
74540;SHT31;66042;51.090;-115.340;2023-05-03T01:43:44;29.11;20.03
74540;SHT31;66042;51.090;-115.340;2023-05-03T01:46:12;28.86;20.19
74540;SHT31;66042;51.090;-115.340;2023-05-03T01:48:40;28.63;20.41
74540;SHT31;66042;51.090;-115.340;2023-05-03T01:51:07;28.44;20.65
74540;SHT31;66042;51.090;-115.340;2023-05-03T01:53:33;28.26;20.76
74540;SHT31;66042;51.090;-115.340;2023-05-03T01:56:00;28.04;20.98
74540;SHT31;66042;51.090;-115.340;2023-05-03T01:58:27;27.84;21.26
74540;SHT31;66042;51.090;-115.340;2023-05-03T02:00:54;27.67;21.34
74540;SHT31;66042;51.090;-115.340;2023-05-03T02:03:21;27.47;21.50
74540;SHT31;66042;51.090;-115.340;2023-05-03T02:05:49;27.23;21.64
74540;SHT31;66042;51.090;-115.340;2023-05-03T02:08:15;27.05;22.01
74540;SHT31;66042;51.090;-115.340;2023-05-03T02:10:42;26.86;22.12
74540;SHT31;66042;51.090;-115.340;2023-05-03T02:13:09;26.63;22.32
74540;SHT31;66042;51.090;-115.340;2023-05-03T02:15:36;26.36;22.48
74540;SHT31;66042;51.090;-115.340;2023-05-03T02:18:02;26.20;22.76
74540;SHT31;66042;51.090;-115.340;2023-05-03T02:20:29;26.01;22.88
74540;SHT31;66042;51.090;-115.340;2023-05-03T02:23:00;25.78;23.25
74540;SHT31;66042;51.090;-115.340;2023-05-03T02:25:27;25.68;23.50
74540;SHT31;66042;51.090;-115.340;2023-05-03T02:27:53;25.55;23.60
74540;SHT31;66042;51.090;-115.340;2023-05-03T02:30:20;25.36;23.78
74540;SHT31;66042;51.090;-115.340;2023-05-03T02:32:47;25.23;23.85
74540;SHT31;66042;51.090;-115.340;2023-05-03T02:35:14;25.04;24.09
74540;SHT31;66042;51.090;-115.340;2023-05-03T02:37:41;24.92;24.27
74540;SHT31;66042;51.090;-115.340;2023-05-03T02:40:09;24.81;24.71
74540;SHT31;66042;51.090;-115.340;2023-05-03T02:42:36;24.67;24.76
74540;SHT31;66042;51.090;-115.340;2023-05-03T02:45:03;24.52;24.63
74540;SHT31;66042;51.090;-115.340;2023-05-03T02:47:30;24.39;24.82
74540;SHT31;66042;51.090;-115.340;2023-05-03T02:49:56;24.24;25.02
74540;SHT31;66042;51.090;-115.340;2023-05-03T02:52:23;24.08;25.26
74540;SHT31;66042;51.090;-115.340;2023-05-03T02:54:50;23.92;25.47
74540;SHT31;66042;51.090;-115.340;2023-05-03T02:57:17;23.77;25.81
74540;SHT31;66042;51.090;-115.340;2023-05-03T02:59:45;23.62;25.88
74540;SHT31;66042;51.090;-115.340;2023-05-03T03:02:12;23.47;26.18
74540;SHT31;66042;51.090;-115.340;2023-05-03T03:04:38;23.32;26.41
74540;SHT31;66042;51.090;-115.340;2023-05-03T03:07:05;23.20;26.58
74540;SHT31;66042;51.090;-115.340;2023-05-03T03:09:31;23.04;26.65
74540;SHT31;66042;51.090;-115.340;2023-05-03T03:11:59;22.88;26.55
74540;SHT31;66042;51.090;-115.340;2023-05-03T03:14:28;22.76;26.86
74540;SHT31;66042;51.090;-115.340;2023-05-03T03:16:56;22.67;27.04
74540;SHT31;66042;51.090;-115.340;2023-05-03T03:19:27;22.56;27.20
74540;SHT31;66042;51.090;-115.340;2023-05-03T03:21:55;22.43;27.36
74540;SHT31;66042;51.090;-115.340;2023-05-03T03:24:22;22.30;27.60
74540;SHT31;66042;51.090;-115.340;2023-05-03T03:26:49;22.19;27.92
74540;SHT31;66042;51.090;-115.340;2023-05-03T03:29:16;22.06;28.03
74540;SHT31;66042;51.090;-115.340;2023-05-03T03:31:43;21.93;28.23
74540;SHT31;66042;51.090;-115.340;2023-05-03T03:34:11;21.79;28.58
74540;SHT31;66042;51.090;-115.340;2023-05-03T03:36:38;21.65;28.70
74540;SHT31;66042;51.090;-115.340;2023-05-03T03:39:05;21.53;28.89
74540;SHT31;66042;51.090;-115.340;2023-05-03T03:41:32;21.41;29.02
74540;SHT31;66042;51.090;-115.340;2023-05-03T03:44:01;21.32;29.09
74540;SHT31;66042;51.090;-115.340;2023-05-03T03:46:28;21.20;29.37
74540;SHT31;66042;51.090;-115.340;2023-05-03T03:48:55;21.11;29.54
74540;SHT31;66042;51.090;-115.340;2023-05-03T03:51:22;21.01;29.75
74540;SHT31;66042;51.090;-115.340;2023-05-03T03:53:49;20.90;29.84
74540;SHT31;66042;51.090;-115.340;2023-05-03T03:56:16;20.78;29.94
74540;SHT31;66042;51.090;-115.340;2023-05-03T03:58:43;20.67;30.14
74540;SHT31;66042;51.090;-115.340;2023-05-03T04:01:10;20.56;30.29
74540;SHT31;66042;51.090;-115.340;2023-05-03T04:03:38;20.46;30.40
74540;SHT31;66042;51.090;-115.340;2023-05-03T04:06:05;20.36;30.55
74540;SHT31;66042;51.090;-115.340;2023-05-03T04:08:32;20.26;30.82
74540;SHT31;66042;51.090;-115.340;2023-05-03T04:11:00;20.16;31.05
74540;SHT31;66042;51.090;-115.340;2023-05-03T04:13:27;20.05;31.19
74540;SHT31;66042;51.090;-115.340;2023-05-03T04:15:54;19.95;31.19
74540;SHT31;66042;51.090;-115.340;2023-05-03T04:18:21;19.88;31.31
74540;SHT31;66042;51.090;-115.340;2023-05-03T04:20:48;19.80;31.34
74540;SHT31;66042;51.090;-115.340;2023-05-03T04:23:16;19.72;31.62
74540;SHT31;66042;51.090;-115.340;2023-05-03T04:25:43;19.64;31.81
74540;SHT31;66042;51.090;-115.340;2023-05-03T04:28:13;19.57;31.86
74540;SHT31;66042;51.090;-115.340;2023-05-03T04:30:40;19.48;31.92
74540;SHT31;66042;51.090;-115.340;2023-05-03T04:33:11;19.40;32.14
74540;SHT31;66042;51.090;-115.340;2023-05-03T04:35:39;19.34;32.36
74540;SHT31;66042;51.090;-115.340;2023-05-03T04:38:06;19.25;32.53
74540;SHT31;66042;51.090;-115.340;2023-05-03T04:40:34;19.18;32.75
74540;SHT31;66042;51.090;-115.340;2023-05-03T04:43:02;19.11;32.94
74540;SHT31;66042;51.090;-115.340;2023-05-03T04:45:29;19.03;33.02
74540;SHT31;66042;51.090;-115.340;2023-05-03T04:47:57;18.94;33.21
74540;SHT31;66042;51.090;-115.340;2023-05-03T04:50:24;18.83;33.37
74540;SHT31;66042;51.090;-115.340;2023-05-03T04:52:50;18.73;33.58
74540;SHT31;66042;51.090;-115.340;2023-05-03T04:55:17;18.64;33.70
74540;SHT31;66042;51.090;-115.340;2023-05-03T04:57:44;18.54;33.83
74540;SHT31;66042;51.090;-115.340;2023-05-03T05:00:11;18.45;33.96
74540;SHT31;66042;51.090;-115.340;2023-05-03T05:02:40;18.34;34.11
74540;SHT31;66042;51.090;-115.340;2023-05-03T05:05:08;18.25;34.40
74540;SHT31;66042;51.090;-115.340;2023-05-03T05:07:36;18.14;34.68
74540;SHT31;66042;51.090;-115.340;2023-05-03T05:10:04;18.01;34.87
74540;SHT31;66042;51.090;-115.340;2023-05-03T05:12:31;17.89;34.92
74540;SHT31;66042;51.090;-115.340;2023-05-03T05:14:58;17.74;35.09
74540;SHT31;66042;51.090;-115.340;2023-05-03T05:17:25;17.64;35.32
74540;SHT31;66042;51.090;-115.340;2023-05-03T05:19:52;17.57;35.55
74540;SHT31;66042;51.090;-115.340;2023-05-03T05:22:19;17.46;35.82
74540;SHT31;66042;51.090;-115.340;2023-05-03T05:24:46;17.35;35.93
74540;SHT31;66042;51.090;-115.340;2023-05-03T05:27:13;17.22;36.09
74540;SHT31;66042;51.090;-115.340;2023-05-03T05:29:40;17.12;36.32
74540;SHT31;66042;51.090;-115.340;2023-05-03T05:32:07;17.03;36.51
74540;SHT31;66042;51.090;-115.340;2023-05-03T05:34:34;16.93;36.67
74540;SHT31;66042;51.090;-115.340;2023-05-03T05:37:00;16.83;36.93
74540;SHT31;66042;51.090;-115.340;2023-05-03T05:39:29;16.75;37.16
74540;SHT31;66042;51.090;-115.340;2023-05-03T05:41:56;16.66;37.39
74540;SHT31;66042;51.090;-115.340;2023-05-03T05:44:23;16.56;37.58
74540;SHT31;66042;51.090;-115.340;2023-05-03T05:46:50;16.48;37.79
74540;SHT31;66042;51.090;-115.340;2023-05-03T05:49:17;16.42;37.91
74540;SHT31;66042;51.090;-115.340;2023-05-03T05:51:44;16.35;37.97
74540;SHT31;66042;51.090;-115.340;2023-05-03T05:54:11;16.27;38.13
74540;SHT31;66042;51.090;-115.340;2023-05-03T05:56:37;16.18;38.21
74540;SHT31;66042;51.090;-115.340;2023-05-03T05:59:04;16.09;38.34
74540;SHT31;66042;51.090;-115.340;2023-05-03T06:01:31;16.00;38.57
74540;SHT31;66042;51.090;-115.340;2023-05-03T06:03:58;15.91;38.79
74540;SHT31;66042;51.090;-115.340;2023-05-03T06:06:26;15.81;38.99
74540;SHT31;66042;51.090;-115.340;2023-05-03T06:08:52;15.74;39.19
74540;SHT31;66042;51.090;-115.340;2023-05-03T06:11:20;15.67;39.39
74540;SHT31;66042;51.090;-115.340;2023-05-03T06:13:46;15.57;39.55
74540;SHT31;66042;51.090;-115.340;2023-05-03T06:16:13;15.48;39.84
74540;SHT31;66042;51.090;-115.340;2023-05-03T06:18:40;15.40;39.97
74540;SHT31;66042;51.090;-115.340;2023-05-03T06:21:07;15.32;40.13
74540;SHT31;66042;51.090;-115.340;2023-05-03T06:23:35;15.20;40.33
74540;SHT31;66042;51.090;-115.340;2023-05-03T06:26:04;15.12;40.47
74540;SHT31;66042;51.090;-115.340;2023-05-03T06:28:31;15.06;40.62
74540;SHT31;66042;51.090;-115.340;2023-05-03T06:30:58;14.99;40.85
74540;SHT31;66042;51.090;-115.340;2023-05-03T06:33:25;14.92;40.98
74540;SHT31;66042;51.090;-115.340;2023-05-03T06:35:52;14.85;41.02
74540;SHT31;66042;51.090;-115.340;2023-05-03T06:38:19;14.78;41.19
74540;SHT31;66042;51.090;-115.340;2023-05-03T06:40:47;14.73;41.41
74540;SHT31;66042;51.090;-115.340;2023-05-03T06:43:14;14.66;41.49
74540;SHT31;66042;51.090;-115.340;2023-05-03T06:45:42;14.60;41.68
74540;SHT31;66042;51.090;-115.340;2023-05-03T06:48:09;14.54;41.79
74540;SHT31;66042;51.090;-115.340;2023-05-03T06:50:36;14.46;42.02
74540;SHT31;66042;51.090;-115.340;2023-05-03T06:53:04;14.38;42.15
74540;SHT31;66042;51.090;-115.340;2023-05-03T06:55:30;14.33;42.27
74540;SHT31;66042;51.090;-115.340;2023-05-03T06:57:58;14.29;42.36
74540;SHT31;66042;51.090;-115.340;2023-05-03T07:00:26;14.25;42.44
74540;SHT31;66042;51.090;-115.340;2023-05-03T07:02:54;14.19;42.50
74540;SHT31;66042;51.090;-115.340;2023-05-03T07:05:21;14.11;42.63
74540;SHT31;66042;51.090;-115.340;2023-05-03T07:07:48;14.02;42.76
74540;SHT31;66042;51.090;-115.340;2023-05-03T07:10:15;13.95;42.86
74540;SHT31;66042;51.090;-115.340;2023-05-03T07:12:41;13.89;42.96
74540;SHT31;66042;51.090;-115.340;2023-05-03T07:15:08;13.84;43.12
74540;SHT31;66042;51.090;-115.340;2023-05-03T07:17:35;13.77;43.28
74540;SHT31;66042;51.090;-115.340;2023-05-03T07:20:02;13.73;43.34
74540;SHT31;66042;51.090;-115.340;2023-05-03T07:22:29;13.69;43.51
74540;SHT31;66042;51.090;-115.340;2023-05-03T07:24:57;13.65;43.56
74540;SHT31;66042;51.090;-115.340;2023-05-03T07:27:24;13.60;43.69
74540;SHT31;66042;51.090;-115.340;2023-05-03T07:29:51;13.53;43.81
74540;SHT31;66042;51.090;-115.340;2023-05-03T07:32:18;13.46;43.98
74540;SHT31;66042;51.090;-115.340;2023-05-03T07:34:46;13.39;44.03
74540;SHT31;66042;51.090;-115.340;2023-05-03T07:37:12;13.31;44.20
74540;SHT31;66042;51.090;-115.340;2023-05-03T07:39:39;13.26;44.30
74540;SHT31;66042;51.090;-115.340;2023-05-03T07:42:06;13.19;44.53
74540;SHT31;66042;51.090;-115.340;2023-05-03T07:44:34;13.16;44.64
74540;SHT31;66042;51.090;-115.340;2023-05-03T07:47:01;13.12;44.82
74540;SHT31;66042;51.090;-115.340;2023-05-03T07:49:28;13.07;44.98
74540;SHT31;66042;51.090;-115.340;2023-05-03T07:51:57;13.02;45.04
74540;SHT31;66042;51.090;-115.340;2023-05-03T07:54:23;12.94;45.24
74540;SHT31;66042;51.090;-115.340;2023-05-03T07:56:50;12.92;45.29
74540;SHT31;66042;51.090;-115.340;2023-05-03T07:59:17;12.88;45.40
74540;SHT31;66042;51.090;-115.340;2023-05-03T08:01:44;12.81;45.55
74540;SHT31;66042;51.090;-115.340;2023-05-03T08:04:11;12.76;45.67
74540;SHT31;66042;51.090;-115.340;2023-05-03T08:06:38;12.69;45.79
74540;SHT31;66042;51.090;-115.340;2023-05-03T08:09:05;12.62;45.95
74540;SHT31;66042;51.090;-115.340;2023-05-03T08:11:33;12.55;46.06
74540;SHT31;66042;51.090;-115.340;2023-05-03T08:13:59;12.51;46.18
74540;SHT31;66042;51.090;-115.340;2023-05-03T08:16:27;12.47;46.25
74540;SHT31;66042;51.090;-115.340;2023-05-03T08:18:54;12.41;46.34
74540;SHT31;66042;51.090;-115.340;2023-05-03T08:21:21;12.34;46.44
74540;SHT31;66042;51.090;-115.340;2023-05-03T08:23:49;12.30;46.56
74540;SHT31;66042;51.090;-115.340;2023-05-03T08:26:16;12.24;46.70
74540;SHT31;66042;51.090;-115.340;2023-05-03T08:28:43;12.20;46.84
74540;SHT31;66042;51.090;-115.340;2023-05-03T08:31:09;12.13;46.92
74540;SHT31;66042;51.090;-115.340;2023-05-03T08:33:36;12.07;47.07
74540;SHT31;66042;51.090;-115.340;2023-05-03T08:36:03;12.02;47.22
74540;SHT31;66042;51.090;-115.340;2023-05-03T08:38:30;11.97;47.31
74540;SHT31;66042;51.090;-115.340;2023-05-03T08:40:59;11.93;47.46
74540;SHT31;66042;51.090;-115.340;2023-05-03T08:43:53;11.89;47.60
74540;SHT31;66042;51.090;-115.340;2023-05-03T08:46:22;11.85;47.66
74540;SHT31;66042;51.090;-115.340;2023-05-03T08:48:52;11.81;47.70
74540;SHT31;66042;51.090;-115.340;2023-05-03T08:51:20;11.77;47.80
74540;SHT31;66042;51.090;-115.340;2023-05-03T08:53:49;11.73;47.89
74540;SHT31;66042;51.090;-115.340;2023-05-03T08:56:58;11.70;48.00
74540;SHT31;66042;51.090;-115.340;2023-05-03T08:59:11;11.69;48.09
74540;SHT31;66042;51.090;-115.340;2023-05-03T09:01:41;11.66;48.13
74540;SHT31;66042;51.090;-115.340;2023-05-03T09:04:08;11.62;48.16
74540;SHT31;66042;51.090;-115.340;2023-05-03T09:06:37;11.59;48.20
74540;SHT31;66042;51.090;-115.340;2023-05-03T09:09:04;11.55;48.29
74540;SHT31;66042;51.090;-115.340;2023-05-03T09:11:33;11.50;48.47
74540;SHT31;66042;51.090;-115.340;2023-05-03T09:14:13;11.46;48.52
74540;SHT31;66042;51.090;-115.340;2023-05-03T09:16:43;11.43;48.59
74540;SHT31;66042;51.090;-115.340;2023-05-03T09:19:12;11.39;48.69
74540;SHT31;66042;51.090;-115.340;2023-05-03T09:21:41;11.38;48.71
74540;SHT31;66042;51.090;-115.340;2023-05-03T09:24:18;11.35;48.70
74540;SHT31;66042;51.090;-115.340;2023-05-03T09:26:48;11.29;48.80
74540;SHT31;66042;51.090;-115.340;2023-05-03T09:29:27;11.26;48.89
74540;SHT31;66042;51.090;-115.340;2023-05-03T09:32:00;11.21;48.97
74540;SHT31;66042;51.090;-115.340;2023-05-03T09:34:33;11.15;49.05
74540;SHT31;66042;51.090;-115.340;2023-05-03T09:37:01;11.10;49.16
74540;SHT31;66042;51.090;-115.340;2023-05-03T09:39:28;11.05;49.37
74540;SHT31;66042;51.090;-115.340;2023-05-03T09:41:55;11.01;49.47
74540;SHT31;66042;51.090;-115.340;2023-05-03T09:47:25;10.93;49.63
74540;SHT31;66042;51.090;-115.340;2023-05-03T09:49:52;10.89;49.67
74540;SHT31;66042;51.090;-115.340;2023-05-03T09:52:20;10.86;49.73
74540;SHT31;66042;51.090;-115.340;2023-05-03T09:54:47;10.83;49.81
74540;SHT31;66042;51.090;-115.340;2023-05-03T09:57:18;10.79;49.91
74540;SHT31;66042;51.090;-115.340;2023-05-03T09:59:46;10.75;49.99
74540;SHT31;66042;51.090;-115.340;2023-05-03T10:02:15;10.70;50.06
74540;SHT31;66042;51.090;-115.340;2023-05-03T10:04:43;10.65;50.13
74540;SHT31;66042;51.090;-115.340;2023-05-03T10:07:21;10.60;50.22
74540;SHT31;66042;51.090;-115.340;2023-05-03T10:09:52;10.55;50.28
74540;SHT31;66042;51.090;-115.340;2023-05-03T10:12:22;10.52;50.36
74540;SHT31;66042;51.090;-115.340;2023-05-03T10:14:51;10.49;50.50
74540;SHT31;66042;51.090;-115.340;2023-05-03T10:17:23;10.48;50.64
74540;SHT31;66042;51.090;-115.340;2023-05-03T10:19:56;10.46;50.75
74540;SHT31;66042;51.090;-115.340;2023-05-03T10:25:37;10.42;50.84
74540;SHT31;66042;51.090;-115.340;2023-05-03T10:28:24;10.37;50.94
74540;SHT31;66042;51.090;-115.340;2023-05-03T10:30:51;10.32;51.05
74540;SHT31;66042;51.090;-115.340;2023-05-03T10:35:52;10.28;51.14
74540;SHT31;66042;51.090;-115.340;2023-05-03T10:38:20;10.25;51.18
74540;SHT31;66042;51.090;-115.340;2023-05-03T10:40:50;10.19;51.24
74540;SHT31;66042;51.090;-115.340;2023-05-03T10:46:02;10.13;51.37
74540;SHT31;66042;51.090;-115.340;2023-05-03T10:48:31;10.10;51.41
74540;SHT31;66042;51.090;-115.340;2023-05-03T10:54:01;10.02;51.71
74540;SHT31;66042;51.090;-115.340;2023-05-03T10:56:28;9.98;51.71
74540;SHT31;66042;51.090;-115.340;2023-05-03T10:58:55;9.96;51.70
74540;SHT31;66042;51.090;-115.340;2023-05-03T11:01:23;9.94;51.79
74540;SHT31;66042;51.090;-115.340;2023-05-03T11:06:39;9.86;52.06
74540;SHT31;66042;51.090;-115.340;2023-05-03T11:09:07;9.80;52.14
74540;SHT31;66042;51.090;-115.340;2023-05-03T11:11:37;9.76;52.27
74540;SHT31;66042;51.090;-115.340;2023-05-03T11:14:05;9.75;52.32
74540;SHT31;66042;51.090;-115.340;2023-05-03T11:16:34;9.72;52.36
74540;SHT31;66042;51.090;-115.340;2023-05-03T11:19:05;9.69;52.37
74540;SHT31;66042;51.090;-115.340;2023-05-03T11:21:32;9.67;52.43
74540;SHT31;66042;51.090;-115.340;2023-05-03T11:23:59;9.64;52.51
74540;SHT31;66042;51.090;-115.340;2023-05-03T11:26:27;9.61;52.50
74540;SHT31;66042;51.090;-115.340;2023-05-03T11:29:00;9.60;52.53
74540;SHT31;66042;51.090;-115.340;2023-05-03T11:31:27;9.58;52.69
74540;SHT31;66042;51.090;-115.340;2023-05-03T11:33:54;9.57;52.72
74540;SHT31;66042;51.090;-115.340;2023-05-03T11:36:21;9.55;52.81
74540;SHT31;66042;51.090;-115.340;2023-05-03T11:38:48;9.55;52.87
74540;SHT31;66042;51.090;-115.340;2023-05-03T11:41:15;9.55;52.91
74540;SHT31;66042;51.090;-115.340;2023-05-03T11:43:43;9.56;52.91
74540;SHT31;66042;51.090;-115.340;2023-05-03T11:46:16;9.53;52.90
74540;SHT31;66042;51.090;-115.340;2023-05-03T11:48:49;9.51;52.99
74540;SHT31;66042;51.090;-115.340;2023-05-03T11:51:25;9.48;52.96
74540;SHT31;66042;51.090;-115.340;2023-05-03T11:53:52;9.44;52.96
74540;SHT31;66042;51.090;-115.340;2023-05-03T11:56:21;9.42;53.06
74540;SHT31;66042;51.090;-115.340;2023-05-03T11:58:53;9.39;53.07
74540;SHT31;66042;51.090;-115.340;2023-05-03T12:01:24;9.36;53.24
74540;SHT31;66042;51.090;-115.340;2023-05-03T12:03:55;9.36;53.26
74540;SHT31;66042;51.090;-115.340;2023-05-03T12:06:26;9.34;53.26
74540;SHT31;66042;51.090;-115.340;2023-05-03T12:08:56;9.32;53.32
74540;SHT31;66042;51.090;-115.340;2023-05-03T12:11:23;9.29;53.42
74540;SHT31;66042;51.090;-115.340;2023-05-03T12:13:57;9.27;53.41
74540;SHT31;66042;51.090;-115.340;2023-05-03T12:16:25;9.26;53.35
74540;SHT31;66042;51.090;-115.340;2023-05-03T12:18:54;9.23;53.66
74540;SHT31;66042;51.090;-115.340;2023-05-03T12:21:47;9.17;53.91
74540;SHT31;66042;51.090;-115.340;2023-05-03T12:24:13;9.13;54.07
74540;SHT31;66042;51.090;-115.340;2023-05-03T12:26:44;9.13;53.99
74540;SHT31;66042;51.090;-115.340;2023-05-03T12:29:11;9.14;53.96
74540;SHT31;66042;51.090;-115.340;2023-05-03T12:31:38;9.15;53.87
74540;SHT31;66042;51.090;-115.340;2023-05-03T12:34:06;9.15;53.89
74540;SHT31;66042;51.090;-115.340;2023-05-03T12:36:33;9.15;53.89
74540;SHT31;66042;51.090;-115.340;2023-05-03T12:39:00;9.11;54.07
74540;SHT31;66042;51.090;-115.340;2023-05-03T12:41:28;9.05;54.31
74540;SHT31;66042;51.090;-115.340;2023-05-03T12:43:56;8.95;54.67
74540;SHT31;66042;51.090;-115.340;2023-05-03T12:46:23;8.93;54.68
74540;SHT31;66042;51.090;-115.340;2023-05-03T12:48:53;8.94;54.63
74540;SHT31;66042;51.090;-115.340;2023-05-03T12:51:21;8.97;54.50
74540;SHT31;66042;51.090;-115.340;2023-05-03T12:53:49;8.96;54.64
74540;SHT31;66042;51.090;-115.340;2023-05-03T12:56:16;8.96;54.71
74540;SHT31;66042;51.090;-115.340;2023-05-03T12:58:43;8.97;54.62
74540;SHT31;66042;51.090;-115.340;2023-05-03T13:01:14;9.00;54.62
74540;SHT31;66042;51.090;-115.340;2023-05-03T13:03:41;9.02;54.66
74540;SHT31;66042;51.090;-115.340;2023-05-03T13:06:08;9.02;54.58
74540;SHT31;66042;51.090;-115.340;2023-05-03T13:08:35;9.04;54.46
74540;SHT31;66042;51.090;-115.340;2023-05-03T13:11:03;9.08;54.49
74540;SHT31;66042;51.090;-115.340;2023-05-03T13:13:30;9.09;54.49
74540;SHT31;66042;51.090;-115.340;2023-05-03T13:15:57;9.10;54.42
74540;SHT31;66042;51.090;-115.340;2023-05-03T13:18:24;9.12;54.42
74540;SHT31;66042;51.090;-115.340;2023-05-03T13:20:51;9.14;54.42
74540;SHT31;66042;51.090;-115.340;2023-05-03T13:23:18;9.15;54.47
74540;SHT31;66042;51.090;-115.340;2023-05-03T13:25:44;9.13;54.52
74540;SHT31;66042;51.090;-115.340;2023-05-03T13:28:11;9.13;54.46
74540;SHT31;66042;51.090;-115.340;2023-05-03T13:30:38;9.09;54.81
74540;SHT31;66042;51.090;-115.340;2023-05-03T13:33:05;9.02;54.92
74540;SHT31;66042;51.090;-115.340;2023-05-03T13:35:32;9.00;54.82
74540;SHT31;66042;51.090;-115.340;2023-05-03T13:37:59;8.99;54.94
74540;SHT31;66042;51.090;-115.340;2023-05-03T13:40:26;8.92;55.22
74540;SHT31;66042;51.090;-115.340;2023-05-03T13:42:52;8.93;54.99
74540;SHT31;66042;51.090;-115.340;2023-05-03T13:45:19;8.93;55.30
74540;SHT31;66042;51.090;-115.340;2023-05-03T13:47:46;8.97;55.03
74540;SHT31;66042;51.090;-115.340;2023-05-03T13:50:13;9.00;55.11
74540;SHT31;66042;51.090;-115.340;2023-05-03T13:52:40;9.03;54.94
74540;SHT31;66042;51.090;-115.340;2023-05-03T13:55:09;9.06;54.91
74540;SHT31;66042;51.090;-115.340;2023-05-03T13:57:35;9.07;54.98
74540;SHT31;66042;51.090;-115.340;2023-05-03T14:00:02;9.05;55.01
74540;SHT31;66042;51.090;-115.340;2023-05-03T14:02:31;9.06;55.02
74540;SHT31;66042;51.090;-115.340;2023-05-03T14:04:57;9.06;55.13
74540;SHT31;66042;51.090;-115.340;2023-05-03T14:07:24;9.08;55.17
74540;SHT31;66042;51.090;-115.340;2023-05-03T14:09:51;9.09;55.18
74540;SHT31;66042;51.090;-115.340;2023-05-03T14:12:18;9.10;55.31
74540;SHT31;66042;51.090;-115.340;2023-05-03T14:14:45;9.10;55.46
74540;SHT31;66042;51.090;-115.340;2023-05-03T14:17:11;9.10;55.54
74540;SHT31;66042;51.090;-115.340;2023-05-03T14:19:38;9.13;55.74
74540;SHT31;66042;51.090;-115.340;2023-05-03T14:22:06;9.14;55.85
74540;SHT31;66042;51.090;-115.340;2023-05-03T14:24:32;9.15;55.75
74540;SHT31;66042;51.090;-115.340;2023-05-03T14:26:59;9.19;55.59
74540;SHT31;66042;51.090;-115.340;2023-05-03T14:29:26;9.24;55.69
74540;SHT31;66042;51.090;-115.340;2023-05-03T14:31:53;9.30;55.75
74540;SHT31;66042;51.090;-115.340;2023-05-03T14:34:21;9.33;56.12
74540;SHT31;66042;51.090;-115.340;2023-05-03T14:36:48;9.36;56.29
74540;SHT31;66042;51.090;-115.340;2023-05-03T14:39:15;9.41;56.26
74540;SHT31;66042;51.090;-115.340;2023-05-03T14:41:42;9.46;56.23
74540;SHT31;66042;51.090;-115.340;2023-05-03T14:44:09;9.51;56.10
74540;SHT31;66042;51.090;-115.340;2023-05-03T14:46:35;9.57;56.18
74540;SHT31;66042;51.090;-115.340;2023-05-03T14:49:03;9.61;56.23
74540;SHT31;66042;51.090;-115.340;2023-05-03T14:51:30;9.67;56.34
74540;SHT31;66042;51.090;-115.340;2023-05-03T14:53:57;9.72;56.52
74540;SHT31;66042;51.090;-115.340;2023-05-03T14:56:24;9.78;56.36
74540;SHT31;66042;51.090;-115.340;2023-05-03T14:58:52;9.84;56.27
74540;SHT31;66042;51.090;-115.340;2023-05-03T15:01:20;9.90;55.98
74540;SHT31;66042;51.090;-115.340;2023-05-03T15:03:47;9.96;55.76
74540;SHT31;66042;51.090;-115.340;2023-05-03T15:06:21;10.01;55.53
74540;SHT31;66042;51.090;-115.340;2023-05-03T15:08:55;10.08;55.71
74540;SHT31;66042;51.090;-115.340;2023-05-03T15:11:24;10.15;55.78
74540;SHT31;66042;51.090;-115.340;2023-05-03T15:13:52;10.23;55.71
74540;SHT31;66042;51.090;-115.340;2023-05-03T15:16:19;10.35;55.75
74540;SHT31;66042;51.090;-115.340;2023-05-03T15:18:46;10.43;55.32
74540;SHT31;66042;51.090;-115.340;2023-05-03T15:21:19;10.52;54.97
74540;SHT31;66042;51.090;-115.340;2023-05-03T15:23:46;10.61;55.30
74540;SHT31;66042;51.090;-115.340;2023-05-03T15:26:14;10.70;55.14
74540;SHT31;66042;51.090;-115.340;2023-05-03T15:28:41;10.80;54.73
74540;SHT31;66042;51.090;-115.340;2023-05-03T15:31:08;10.91;54.84